sensor_id;sensor_type;location;lat;lon;timestamp;temperature;humidity
1700;DHT22;847;48.058;7.810;2023-04-01T00:09:27;10.00;99.00
1700;DHT22;847;48.058;7.810;2023-04-01T00:11:55;9.90;99.00
1700;DHT22;847;48.058;7.810;2023-04-01T00:14:24;9.90;99.00
1700;DHT22;847;48.058;7.810;2023-04-01T00:16:51;9.80;99.00
1700;DHT22;847;48.058;7.810;2023-04-01T00:24:47;9.80;99.00
1700;DHT22;847;48.058;7.810;2023-04-01T00:27:15;9.70;99.00
1700;DHT22;847;48.058;7.810;2023-04-01T00:29:42;9.70;99.00
1700;DHT22;847;48.058;7.810;2023-04-01T00:32:08;9.70;99.00
1700;DHT22;847;48.058;7.810;2023-04-01T00:45:21;9.60;99.00
1700;DHT22;847;48.058;7.810;2023-04-01T00:47:46;9.60;99.00
1700;DHT22;847;48.058;7.810;2023-04-01T00:50:13;9.60;99.00
1700;DHT22;847;48.058;7.810;2023-04-01T01:00:29;9.60;99.00
1700;DHT22;847;48.058;7.810;2023-04-01T01:02:57;9.60;99.00
1700;DHT22;847;48.058;7.810;2023-04-01T01:05:33;9.70;99.00
1700;DHT22;847;48.058;7.810;2023-04-01T01:08:10;9.70;99.00
1700;DHT22;847;48.058;7.810;2023-04-01T01:10:42;9.70;99.00
1700;DHT22;847;48.058;7.810;2023-04-01T01:13:17;9.70;99.00
1700;DHT22;847;48.058;7.810;2023-04-01T01:15:53;9.70;99.00
1700;DHT22;847;48.058;7.810;2023-04-01T01:18:30;9.70;99.00
1700;DHT22;847;48.058;7.810;2023-04-01T01:27:04;9.70;99.00
1700;DHT22;847;48.058;7.810;2023-04-01T01:29:54;9.70;99.00
1700;DHT22;847;48.058;7.810;2023-04-01T01:32:38;9.70;99.00
1700;DHT22;847;48.058;7.810;2023-04-01T01:35:16;9.70;99.00
1700;DHT22;847;48.058;7.810;2023-04-01T01:42:59;9.70;99.00
1700;DHT22;847;48.058;7.810;2023-04-01T01:58:28;9.80;99.00
1700;DHT22;847;48.058;7.810;2023-04-01T02:00:58;9.80;99.00
1700;DHT22;847;48.058;7.810;2023-04-01T02:03:27;9.80;99.00
1700;DHT22;847;48.058;7.810;2023-04-01T02:18:55;9.90;99.00
1700;DHT22;847;48.058;7.810;2023-04-01T02:34:22;9.90;99.00
1700;DHT22;847;48.058;7.810;2023-04-01T02:36:52;9.90;99.00
1700;DHT22;847;48.058;7.810;2023-04-01T03:20:47;9.60;99.00
1700;DHT22;847;48.058;7.810;2023-04-01T03:26:11;9.60;99.00
1700;DHT22;847;48.058;7.810;2023-04-01T03:28:41;9.60;99.00
1700;DHT22;847;48.058;7.810;2023-04-01T03:31:31;9.60;99.00
1700;DHT22;847;48.058;7.810;2023-04-01T03:33:58;9.60;99.00
1700;DHT22;847;48.058;7.810;2023-04-01T03:36:27;9.70;99.00
1700;DHT22;847;48.058;7.810;2023-04-01T03:38:54;9.60;99.00
1700;DHT22;847;48.058;7.810;2023-04-01T03:41:21;9.60;99.00
1700;DHT22;847;48.058;7.810;2023-04-01T03:43:48;9.60;99.00
1700;DHT22;847;48.058;7.810;2023-04-01T03:46:17;9.60;99.00
1700;DHT22;847;48.058;7.810;2023-04-01T03:48:44;9.60;99.00
1700;DHT22;847;48.058;7.810;2023-04-01T03:51:11;9.60;99.00
1700;DHT22;847;48.058;7.810;2023-04-01T03:53:40;9.50;99.00
1700;DHT22;847;48.058;7.810;2023-04-01T03:56:08;9.50;99.00
1700;DHT22;847;48.058;7.810;2023-04-01T03:58:35;9.50;99.00
1700;DHT22;847;48.058;7.810;2023-04-01T04:03:45;9.50;99.00
1700;DHT22;847;48.058;7.810;2023-04-01T04:06:16;9.50;99.00
1700;DHT22;847;48.058;7.810;2023-04-01T04:19:44;9.50;99.00
1700;DHT22;847;48.058;7.810;2023-04-01T04:24:46;9.40;99.00
1700;DHT22;847;48.058;7.810;2023-04-01T04:27:13;9.40;99.00
1700;DHT22;847;48.058;7.810;2023-04-01T04:29:40;9.40;99.00
1700;DHT22;847;48.058;7.810;2023-04-01T04:32:08;9.40;99.00
1700;DHT22;847;48.058;7.810;2023-04-01T04:34:35;9.40;99.00
1700;DHT22;847;48.058;7.810;2023-04-01T04:57:47;9.50;99.00
1700;DHT22;847;48.058;7.810;2023-04-01T05:00:14;9.40;99.00
1700;DHT22;847;48.058;7.810;2023-04-01T05:02:41;9.40;99.00
1700;DHT22;847;48.058;7.810;2023-04-01T05:05:08;9.40;99.00
1700;DHT22;847;48.058;7.810;2023-04-01T05:07:36;9.40;99.00
1700;DHT22;847;48.058;7.810;2023-04-01T05:10:04;9.40;99.00
1700;DHT22;847;48.058;7.810;2023-04-01T05:12:31;9.40;99.00
1700;DHT22;847;48.058;7.810;2023-04-01T05:15:03;9.40;99.00
1700;DHT22;847;48.058;7.810;2023-04-01T05:17:31;9.40;99.00
1700;DHT22;847;48.058;7.810;2023-04-01T05:19:58;9.40;99.00
1700;DHT22;847;48.058;7.810;2023-04-01T05:22:25;9.40;99.00
1700;DHT22;847;48.058;7.810;2023-04-01T05:24:52;9.40;99.00
1700;DHT22;847;48.058;7.810;2023-04-01T05:27:19;9.40;99.00
1700;DHT22;847;48.058;7.810;2023-04-01T05:29:55;9.40;99.00
1700;DHT22;847;48.058;7.810;2023-04-01T05:32:25;9.50;99.00
1700;DHT22;847;48.058;7.810;2023-04-01T05:34:53;9.50;99.00
1700;DHT22;847;48.058;7.810;2023-04-01T05:37:21;9.50;99.00
1700;DHT22;847;48.058;7.810;2023-04-01T05:39:50;9.50;99.00
1700;DHT22;847;48.058;7.810;2023-04-01T05:42:22;9.50;99.00
1700;DHT22;847;48.058;7.810;2023-04-01T05:44:50;9.50;99.00
1700;DHT22;847;48.058;7.810;2023-04-01T05:50:03;9.50;99.00
1700;DHT22;847;48.058;7.810;2023-04-01T05:52:30;9.50;99.00
1700;DHT22;847;48.058;7.810;2023-04-01T05:54:57;9.50;99.00
1700;DHT22;847;48.058;7.810;2023-04-01T05:57:25;9.50;99.00
1700;DHT22;847;48.058;7.810;2023-04-01T05:59:52;9.50;99.00
1700;DHT22;847;48.058;7.810;2023-04-01T06:02:19;9.50;99.00
1700;DHT22;847;48.058;7.810;2023-04-01T06:04:46;9.60;99.00
1700;DHT22;847;48.058;7.810;2023-04-01T06:15:11;9.60;99.00
1700;DHT22;847;48.058;7.810;2023-04-01T06:20:42;9.60;99.00
1700;DHT22;847;48.058;7.810;2023-04-01T06:23:37;9.70;99.00
1700;DHT22;847;48.058;7.810;2023-04-01T06:26:14;9.70;99.00
1700;DHT22;847;48.058;7.810;2023-04-01T06:35:16;9.70;99.00
1700;DHT22;847;48.058;7.810;2023-04-01T06:40:39;9.70;99.00
1700;DHT22;847;48.058;7.810;2023-04-01T06:43:15;9.70;99.00
1700;DHT22;847;48.058;7.810;2023-04-01T06:46:07;9.80;99.00
1700;DHT22;847;48.058;7.810;2023-04-01T07:04:14;9.80;99.00
1700;DHT22;847;48.058;7.810;2023-04-01T07:06:48;9.80;99.00
1700;DHT22;847;48.058;7.810;2023-04-01T07:09:20;9.80;99.00
1700;DHT22;847;48.058;7.810;2023-04-01T11:33:18;12.60;90.20
1700;DHT22;847;48.058;7.810;2023-04-01T11:44:16;12.60;90.10
1700;DHT22;847;48.058;7.810;2023-04-01T11:49:39;12.60;90.10
1700;DHT22;847;48.058;7.810;2023-04-01T11:52:18;12.60;90.50
1700;DHT22;847;48.058;7.810;2023-04-01T11:55:02;12.70;90.00
1700;DHT22;847;48.058;7.810;2023-04-01T12:00:44;12.60;90.20
1700;DHT22;847;48.058;7.810;2023-04-01T12:03:38;12.70;90.30
1700;DHT22;847;48.058;7.810;2023-04-01T12:06:16;12.60;90.40
1700;DHT22;847;48.058;7.810;2023-04-01T12:08:51;12.60;90.20
1700;DHT22;847;48.058;7.810;2023-04-01T12:11:27;12.70;90.50
1700;DHT22;847;48.058;7.810;2023-04-01T12:14:02;12.90;90.10
1700;DHT22;847;48.058;7.810;2023-04-01T12:16:44;12.90;89.60
1700;DHT22;847;48.058;7.810;2023-04-01T12:19:20;12.90;89.70
1700;DHT22;847;48.058;7.810;2023-04-01T12:24:57;12.80;90.10
1700;DHT22;847;48.058;7.810;2023-04-01T12:27:35;12.80;89.70
1700;DHT22;847;48.058;7.810;2023-04-01T12:30:35;12.90;89.80
1700;DHT22;847;48.058;7.810;2023-04-01T12:36:20;12.90;89.50
1700;DHT22;847;48.058;7.810;2023-04-01T12:39:11;12.90;89.40
1700;DHT22;847;48.058;7.810;2023-04-01T12:41:49;12.90;89.70
1700;DHT22;847;48.058;7.810;2023-04-01T12:44:49;12.90;89.30
1700;DHT22;847;48.058;7.810;2023-04-01T12:50:32;12.70;89.50
1700;DHT22;847;48.058;7.810;2023-04-01T12:53:18;12.60;89.80
1700;DHT22;847;48.058;7.810;2023-04-01T12:55:52;12.60;90.10
1700;DHT22;847;48.058;7.810;2023-04-01T12:58:56;12.60;90.20
1700;DHT22;847;48.058;7.810;2023-04-01T13:01:42;12.60;90.20
1700;DHT22;847;48.058;7.810;2023-04-01T13:04:46;12.60;90.70
1700;DHT22;847;48.058;7.810;2023-04-01T13:08:00;12.70;90.50
1700;DHT22;847;48.058;7.810;2023-04-01T13:10:47;12.70;90.40
1700;DHT22;847;48.058;7.810;2023-04-01T13:13:45;12.80;90.40
1700;DHT22;847;48.058;7.810;2023-04-01T13:16:23;12.90;90.40
1700;DHT22;847;48.058;7.810;2023-04-01T13:19:05;12.90;90.20
1700;DHT22;847;48.058;7.810;2023-04-01T13:21:42;12.80;90.60
1700;DHT22;847;48.058;7.810;2023-04-01T13:24:25;12.90;90.60
1700;DHT22;847;48.058;7.810;2023-04-01T13:27:33;12.90;90.60
1700;DHT22;847;48.058;7.810;2023-04-01T13:30:23;12.80;90.70
1700;DHT22;847;48.058;7.810;2023-04-01T13:33:15;12.80;90.50
1700;DHT22;847;48.058;7.810;2023-04-01T13:36:04;12.70;90.90
1700;DHT22;847;48.058;7.810;2023-04-01T13:42:35;12.80;90.70
1700;DHT22;847;48.058;7.810;2023-04-01T14:07:09;13.00;90.50
1700;DHT22;847;48.058;7.810;2023-04-01T14:10:06;13.10;90.50
1700;DHT22;847;48.058;7.810;2023-04-01T14:12:40;13.10;90.30
1700;DHT22;847;48.058;7.810;2023-04-01T14:15:26;13.10;90.70
1700;DHT22;847;48.058;7.810;2023-04-01T14:18:09;13.20;90.50
1700;DHT22;847;48.058;7.810;2023-04-01T14:20:50;13.30;89.90
1700;DHT22;847;48.058;7.810;2023-04-01T14:30:09;13.40;88.90
1700;DHT22;847;48.058;7.810;2023-04-01T14:32:49;13.50;88.70
1700;DHT22;847;48.058;7.810;2023-04-01T14:35:31;13.50;89.00
1700;DHT22;847;48.058;7.810;2023-04-01T14:41:11;13.60;88.90
1700;DHT22;847;48.058;7.810;2023-04-01T14:50:05;13.40;89.30
1700;DHT22;847;48.058;7.810;2023-04-01T14:52:35;13.30;89.40
1700;DHT22;847;48.058;7.810;2023-04-01T14:55:20;13.20;89.90
1700;DHT22;847;48.058;7.810;2023-04-01T14:58:13;13.20;90.80
1700;DHT22;847;48.058;7.810;2023-04-01T15:00:59;13.10;91.40
1700;DHT22;847;48.058;7.810;2023-04-01T15:03:30;13.20;91.90
1700;DHT22;847;48.058;7.810;2023-04-01T15:06:26;13.20;91.40
1700;DHT22;847;48.058;7.810;2023-04-01T15:09:06;13.20;91.60
1700;DHT22;847;48.058;7.810;2023-04-01T15:11:52;13.00;91.60
1700;DHT22;847;48.058;7.810;2023-04-01T15:17:40;13.00;91.10
1700;DHT22;847;48.058;7.810;2023-04-01T15:20:35;13.10;91.80
1700;DHT22;847;48.058;7.810;2023-04-01T15:23:15;13.10;91.50
1700;DHT22;847;48.058;7.810;2023-04-01T15:25:57;13.00;90.80
1700;DHT22;847;48.058;7.810;2023-04-01T15:28:58;13.00;90.90
1700;DHT22;847;48.058;7.810;2023-04-01T15:31:44;13.00;90.80
1700;DHT22;847;48.058;7.810;2023-04-01T15:34:35;12.90;90.90
1700;DHT22;847;48.058;7.810;2023-04-01T15:37:09;12.90;90.80
1700;DHT22;847;48.058;7.810;2023-04-01T15:39:58;12.90;91.20
1700;DHT22;847;48.058;7.810;2023-04-01T15:42:49;12.80;91.30
1700;DHT22;847;48.058;7.810;2023-04-01T15:45:38;12.80;91.20
1700;DHT22;847;48.058;7.810;2023-04-01T15:48:31;12.80;90.70
1700;DHT22;847;48.058;7.810;2023-04-01T15:51:17;12.80;90.70
1700;DHT22;847;48.058;7.810;2023-04-01T15:54:14;12.70;91.60
1700;DHT22;847;48.058;7.810;2023-04-01T16:03:21;12.50;93.80
1700;DHT22;847;48.058;7.810;2023-04-01T16:06:11;12.40;95.60
1700;DHT22;847;48.058;7.810;2023-04-01T16:08:54;12.40;95.80
1700;DHT22;847;48.058;7.810;2023-04-01T16:11:28;12.40;97.10
1700;DHT22;847;48.058;7.810;2023-04-01T16:14:11;12.40;96.20
1700;DHT22;847;48.058;7.810;2023-04-01T16:16:57;12.50;97.00
1700;DHT22;847;48.058;7.810;2023-04-01T16:19:36;12.50;96.60
1700;DHT22;847;48.058;7.810;2023-04-01T16:22:08;12.60;97.00
1700;DHT22;847;48.058;7.810;2023-04-01T16:24:41;12.70;97.10
1700;DHT22;847;48.058;7.810;2023-04-01T16:27:16;12.70;96.90
1700;DHT22;847;48.058;7.810;2023-04-01T16:29:49;12.70;96.10
1700;DHT22;847;48.058;7.810;2023-04-01T16:32:37;12.70;95.00
1700;DHT22;847;48.058;7.810;2023-04-01T16:35:29;12.80;94.90
1700;DHT22;847;48.058;7.810;2023-04-01T16:38:03;12.80;95.10
1700;DHT22;847;48.058;7.810;2023-04-01T16:40:41;12.90;93.90
1700;DHT22;847;48.058;7.810;2023-04-01T16:43:15;12.80;94.10
1700;DHT22;847;48.058;7.810;2023-04-01T16:45:53;12.80;94.30
1700;DHT22;847;48.058;7.810;2023-04-01T16:48:23;12.90;94.40
1700;DHT22;847;48.058;7.810;2023-04-01T16:50:58;12.90;94.20
1700;DHT22;847;48.058;7.810;2023-04-01T16:53:35;12.90;94.80
1700;DHT22;847;48.058;7.810;2023-04-01T16:56:10;13.00;98.10
1700;DHT22;847;48.058;7.810;2023-04-01T16:59:02;12.90;95.00
1700;DHT22;847;48.058;7.810;2023-04-01T17:01:43;12.90;93.80
1700;DHT22;847;48.058;7.810;2023-04-01T17:04:21;12.80;93.70
1700;DHT22;847;48.058;7.810;2023-04-01T17:06:56;12.80;93.60
1700;DHT22;847;48.058;7.810;2023-04-01T17:09:38;12.80;93.70
1700;DHT22;847;48.058;7.810;2023-04-01T17:12:19;12.70;93.80
1700;DHT22;847;48.058;7.810;2023-04-01T17:14:54;12.70;93.40
1700;DHT22;847;48.058;7.810;2023-04-01T17:17:42;12.80;93.20
1700;DHT22;847;48.058;7.810;2023-04-01T17:20:20;12.80;93.30
1700;DHT22;847;48.058;7.810;2023-04-01T17:23:18;12.70;93.30
1700;DHT22;847;48.058;7.810;2023-04-01T17:29:23;12.70;93.50
1700;DHT22;847;48.058;7.810;2023-04-01T17:38:03;12.60;93.70
1700;DHT22;847;48.058;7.810;2023-04-01T17:40:58;12.60;93.40
1700;DHT22;847;48.058;7.810;2023-04-01T17:43:47;12.60;93.50
1700;DHT22;847;48.058;7.810;2023-04-01T17:46:39;12.60;93.40
1700;DHT22;847;48.058;7.810;2023-04-01T17:50:27;12.60;93.50
1700;DHT22;847;48.058;7.810;2023-04-01T17:56:23;12.50;93.90
1700;DHT22;847;48.058;7.810;2023-04-01T17:59:35;12.40;93.90
1700;DHT22;847;48.058;7.810;2023-04-01T18:02:15;12.30;93.70
1700;DHT22;847;48.058;7.810;2023-04-01T18:05:06;12.30;93.60
1700;DHT22;847;48.058;7.810;2023-04-01T18:07:55;12.20;93.80
1700;DHT22;847;48.058;7.810;2023-04-01T18:10:48;12.20;93.70
1700;DHT22;847;48.058;7.810;2023-04-01T18:19:52;12.10;93.20
1700;DHT22;847;48.058;7.810;2023-04-01T18:25:32;12.00;93.60
1700;DHT22;847;48.058;7.810;2023-04-01T18:28:24;11.90;93.50
1700;DHT22;847;48.058;7.810;2023-04-01T18:32:12;11.90;93.50
1700;DHT22;847;48.058;7.810;2023-04-01T18:34:11;11.90;93.10
1700;DHT22;847;48.058;7.810;2023-04-01T18:39:35;11.80;93.70
1700;DHT22;847;48.058;7.810;2023-04-01T18:42:31;11.80;93.70
1700;DHT22;847;48.058;7.810;2023-04-01T18:45:23;11.80;93.50
